WilderneSS Discoverer — WDF7009 — position and weather

sailwx.info

Track history (hours):
 
Tides and Currents Weather Stations Pressure Air Temp Water Temp Dewpoint Dewpoint Depression Visibility Wind Speed Wind Dir Waves Ship Positions

WilderneSS Discoverer

Owner: InnerSea Discoveries, Seattle, WA. More information available from US FCC via Universal Licensing System and Coast Guard Vessel Documentation Center.

Last reported at 2017-Oct-28 16:05 UTC. Time now 2017-Dec-15 00:45 UTC.
Position N 47°40' W 122°23'.
Warning: this ship's position is 47 days out of date.

Length 52 m; draft 2.4 m.

Type: Passenger vessel. MMSI: 367480140.

Date/timePositionNaut miles runAvg speedWind from/ knotsBaromVisibWave heightAir tempDewpointWater temp
2017-Oct-28 16:05N 47°40' W 122°23'0 0.1
2017-Oct-28 16:00N 47°40' W 122°23'0 0.3
2017-Oct-28 15:30N 47°39' W 122°23'0 0.0
2017-Oct-28 14:59N 47°39' W 122°23'0 0.0
2017-Oct-28 14:29N 47°39' W 122°23'0 0.0
2017-Oct-28 13:59N 47°39' W 122°23'1 1.3
2017-Oct-28 13:30N 47°40' W 122°24'1 1.7
2017-Oct-28 13:00N 47°40' W 122°25'2 3.8
2017-Oct-28 12:30N 47°42' W 122°25'2 3.7
2017-Oct-28 12:00N 47°44' W 122°26'2 4.5
2017-Oct-28 11:30N 47°46' W 122°27'2 5.0
2017-Oct-28 11:00N 47°48' W 122°28'2 4.9
2017-Oct-28 10:30N 47°51' W 122°29'2 4.8
2017-Oct-28 10:00N 47°53' W 122°30'2 4.4
2017-Oct-28 09:30N 47°55' W 122°31'2 4.3
2017-Oct-28 09:00N 47°56' W 122°34'2 4.0
2017-Oct-28 08:30N 47°57' W 122°37'2 3.6
2017-Oct-28 08:00N 47°55' W 122°38'2 4.6
2017-Oct-28 07:30N 47°53' W 122°36'2 4.4
2017-Oct-28 07:00N 47°51' W 122°37'2 3.6
2017-Oct-28 06:30N 47°50' W 122°39'3 6.0
2017-Oct-28 06:00N 47°48' W 122°42'4 8.8
2017-Oct-28 05:30N 47°44' W 122°45'4 8.1
2017-Oct-28 05:00N 47°41' W 122°48'4 8.7
2017-Oct-28 04:30N 47°38' W 122°54'4 8.4
2017-Oct-28 04:00N 47°35' W 122°58'4 8.5
2017-Oct-28 03:30N 47°32' W 123°02'4 8.4
2017-Oct-28 03:00N 47°28' W 123°05'4 8.6
2017-Oct-28 02:30N 47°24' W 123°08'2 3.8
2017-Oct-28 01:53N 47°22' W 123°09'0 0.0
2017-Oct-28 00:23N 47°22' W 123°09'0 0.1
2017-Oct-27 23:50N 47°22' W 123°09'0 0.1
2017-Oct-27 23:26N 47°22' W 123°09'0 0.0
2017-Oct-27 22:59N 47°22' W 123°09'0 0.1
2017-Oct-27 22:23N 47°22' W 123°09'0 0.0
2017-Oct-27 22:00N 47°22' W 123°09'0 0.1
2017-Oct-27 21:28N 47°22' W 123°09'0 0.1
2017-Oct-27 20:52N 47°22' W 123°09'0 0.0
2017-Oct-27 20:25N 47°22' W 123°09'0 0.0
2017-Oct-27 20:00N 47°22' W 123°09'0 0.0
2017-Oct-27 19:28N 47°22' W 123°09'0 0.0
2017-Oct-27 18:59N 47°22' W 123°09'2 3.8
2017-Oct-27 18:30N 47°24' W 123°08'0 0.9
2017-Oct-27 17:58N 47°24' W 123°08'0 0.1
2017-Oct-27 17:13N 47°24' W 123°08'0 0.0
2017-Oct-27 15:40N 47°24' W 123°08'0 0.0
2017-Oct-27 15:25N 47°24' W 123°08'0 0.0
2017-Oct-27 14:55N 47°24' W 123°08'0 0.8
2017-Oct-27 14:30N 47°24' W 123°08'2 1.4
2017-Oct-27 13:14N 47°22' W 123°09'0 0.0
2017-Oct-27 12:59N 47°22' W 123°09'0 0.0
2017-Oct-27 09:59N 47°22' W 123°09'0 0.0
2017-Oct-27 09:11N 47°22' W 123°09'0 0.0
2017-Oct-27 08:59N 47°22' W 123°09'0 0.0
2017-Oct-27 08:29N 47°22' W 123°09'0 0.0
2017-Oct-27 07:59N 47°22' W 123°09'0 0.0
2017-Oct-27 07:26N 47°22' W 123°09'0 0.0
2017-Oct-27 06:56N 47°22' W 123°09'0 0.1
2017-Oct-27 06:29N 47°22' W 123°09'5 9.6
2017-Oct-27 06:00N 47°26' W 123°06'510.6
2017-Oct-27 05:30N 47°31' W 123°02'510.6
2017-Oct-27 05:00N 47°35' W 122°58'510.5
2017-Oct-27 04:30N 47°39' W 122°52'510.2
2017-Oct-27 04:00N 47°42' W 122°46'510.0
2017-Oct-27 03:28N 47°47' W 122°43'510.5
2017-Oct-27 03:00N 47°50' W 122°39'4 7.5
2017-Oct-27 02:30N 47°54' W 122°37'710.4
2017-Oct-27 01:51N 48°01' W 122°39'7 1.2
2017-Oct-26 19:27N 48°06' W 122°46'3 5.1
2017-Oct-26 18:55N 48°09' W 122°46'3 6.4
2017-Oct-26 18:28N 48°11' W 122°49'3 6.5
2017-Oct-26 17:59N 48°13' W 122°52'4 8.0
2017-Oct-26 17:29N 48°17' W 122°52'3 4.9
2017-Oct-26 16:55N 48°20' W 122°51'4 7.9
2017-Oct-26 16:23N 48°23' W 122°55'3 8.9
2017-Oct-26 16:00N 48°26' W 122°57'3 5.4
2017-Oct-26 15:30N 48°29' W 122°57'3 6.5
2017-Oct-26 15:00N 48°32' W 122°57'2 4.0
2017-Oct-26 14:27N 48°32' W 123°01'0 0.0
2017-Oct-26 14:00N 48°32' W 123°01'0 0.0
2017-Oct-26 13:30N 48°32' W 123°01'0 0.0
2017-Oct-26 13:00N 48°32' W 123°01'0 0.0
2017-Oct-26 12:27N 48°32' W 123°01'0 0.0
2017-Oct-26 12:00N 48°32' W 123°01'0 0.0
2017-Oct-26 11:30N 48°32' W 123°01'0 0.0
2017-Oct-26 10:54N 48°32' W 123°01'0 0.0
2017-Oct-26 10:30N 48°32' W 123°01'0 0.0
2017-Oct-26 10:00N 48°32' W 123°01'0 0.0
2017-Oct-26 09:30N 48°32' W 123°01'0 0.0
2017-Oct-26 09:00N 48°32' W 123°01'0 0.0
2017-Oct-26 08:30N 48°32' W 123°01'0 0.0
2017-Oct-26 08:00N 48°32' W 123°01'0 0.0
2017-Oct-26 07:30N 48°32' W 123°01'0 0.0
2017-Oct-26 07:00N 48°32' W 123°01'0 0.0
2017-Oct-26 06:24N 48°32' W 123°01'0 0.0
2017-Oct-26 06:00N 48°32' W 123°01'0 0.0
2017-Oct-26 05:30N 48°32' W 123°01'0 0.0
2017-Oct-26 05:00N 48°32' W 123°01'0 0.0
2017-Oct-26 04:30N 48°32' W 123°01'0 0.0
2017-Oct-26 04:00N 48°32' W 123°01'0 0.0
2017-Oct-26 03:30N 48°32' W 123°01'0 0.0
2017-Oct-26 03:00N 48°32' W 123°01'0 0.0
2017-Oct-26 02:30N 48°32' W 123°01'0 0.0
2017-Oct-26 02:00N 48°32' W 123°01'2 3.7
2017-Oct-26 01:31N 48°34' W 123°01'4 8.4
2017-Oct-26 01:00N 48°38' W 123°02'510.8
2017-Oct-26 00:30N 48°43' W 122°58'4 6.6
2017-Oct-25 23:56N 48°46' W 122°54'0 0.0
2017-Oct-25 23:04N 48°46' W 122°54'0 0.0
2017-Oct-25 23:00N 48°46' W 122°54'0 0.0
2017-Oct-25 20:39N 48°46' W 122°54'0 0.1
2017-Oct-25 20:30N 48°46' W 122°54'0 0.0
2017-Oct-25 16:48N 48°46' W 122°54'0 0.0
2017-Oct-25 12:09N 48°46' W 122°54'0 0.0
2017-Oct-25 03:30N 48°46' W 122°54'0 0.0
2017-Oct-25 03:00N 48°46' W 122°54'1 1.0
2017-Oct-25 02:27N 48°45' W 122°53'4 8.7
2017-Oct-25 02:00N 48°43' W 122°49'5 9.0
2017-Oct-25 01:30N 48°39' W 122°44'4 8.7
2017-Oct-25 01:00N 48°36' W 122°49'4 7.8
2017-Oct-25 00:31N 48°39' W 122°53'3 5.0
2017-Oct-24 23:59N 48°41' W 122°54'0 0.0
2017-Oct-24 23:26N 48°41' W 122°54'0 0.1
2017-Oct-24 22:59N 48°41' W 122°54'0 0.1
2017-Oct-24 22:30N 48°41' W 122°54'0 0.1
2017-Oct-24 22:00N 48°41' W 122°54'0 0.0
2017-Oct-24 21:30N 48°41' W 122°54'0 0.0
2017-Oct-24 21:00N 48°41' W 122°54'0 0.0
2017-Oct-24 20:24N 48°41' W 122°54'0 0.0
2017-Oct-24 19:57N 48°41' W 122°54'0 0.1
2017-Oct-24 19:30N 48°41' W 122°54'0 0.1
2017-Oct-24 19:00N 48°41' W 122°54'0 0.1
2017-Oct-24 18:30N 48°41' W 122°54'0 0.1
2017-Oct-24 18:00N 48°41' W 122°54'0 0.8
2017-Oct-24 17:30N 48°41' W 122°54'3 5.5
2017-Oct-24 17:00N 48°39' W 122°52'0 0.1
2017-Oct-24 16:28N 48°39' W 122°52'0 0.1
2017-Oct-24 15:58N 48°39' W 122°52'0 0.0
2017-Oct-24 15:28N 48°39' W 122°52'0 0.0
2017-Oct-24 14:58N 48°39' W 122°52'0 0.1
2017-Oct-24 14:28N 48°39' W 122°52'0 0.1
2017-Oct-24 13:58N 48°39' W 122°52'0 0.0
2017-Oct-24 13:28N 48°39' W 122°52'0 0.0
2017-Oct-24 12:58N 48°39' W 122°52'0 0.1
2017-Oct-24 12:25N 48°39' W 122°52'0 0.1
2017-Oct-24 11:58N 48°39' W 122°52'0 0.0
2017-Oct-24 11:28N 48°39' W 122°52'0 0.1
2017-Oct-24 10:58N 48°39' W 122°52'0 0.1
2017-Oct-24 10:28N 48°39' W 122°52'0 0.0
2017-Oct-24 09:58N 48°39' W 122°52'0 0.1
2017-Oct-24 09:28N 48°38' W 122°52'0 0.1
2017-Oct-24 08:58N 48°39' W 122°52'0 0.0
2017-Oct-24 08:28N 48°39' W 122°52'0 0.0
2017-Oct-24 07:58N 48°39' W 122°52'0 0.0
2017-Oct-24 07:28N 48°39' W 122°52'0 0.0
2017-Oct-24 06:58N 48°39' W 122°52'0 0.0
2017-Oct-24 06:28N 48°39' W 122°52'0 0.1
2017-Oct-24 05:58N 48°39' W 122°52'0 0.1
2017-Oct-24 05:28N 48°39' W 122°52'0 0.0
2017-Oct-24 04:58N 48°39' W 122°52'0 0.0
2017-Oct-24 04:28N 48°39' W 122°52'0 0.0
2017-Oct-24 03:58N 48°39' W 122°52'0 0.0
2017-Oct-24 03:28N 48°39' W 122°52'0 0.0
2017-Oct-24 02:58N 48°39' W 122°52'0 0.0
2017-Oct-24 02:25N 48°39' W 122°52'0 0.0
2017-Oct-24 01:59N 48°39' W 122°52'1 1.6
2017-Oct-24 01:30N 48°38' W 122°52'4 7.2
2017-Oct-24 01:00N 48°36' W 122°47'4 7.6
2017-Oct-24 00:30N 48°35' W 122°41'0 0.4
2017-Oct-23 23:54N 48°35' W 122°41'0 0.0
2017-Oct-23 23:30N 48°35' W 122°41'0 0.0
2017-Oct-23 22:57N 48°35' W 122°41'0 0.0
2017-Oct-23 22:30N 48°35' W 122°41'0 0.0
2017-Oct-23 22:00N 48°35' W 122°41'0 0.0
2017-Oct-23 21:24N 48°35' W 122°41'0 0.0
2017-Oct-23 20:57N 48°35' W 122°41'0 0.0
2017-Oct-23 20:30N 48°35' W 122°41'1 1.4
2017-Oct-23 20:00N 48°35' W 122°41'3 6.6
2017-Oct-23 19:30N 48°32' W 122°43'4 8.8
2017-Oct-23 19:00N 48°32' W 122°49'1 2.3
2017-Oct-23 18:28N 48°32' W 122°51'0 0.0
2017-Oct-23 17:58N 48°32' W 122°51'0 0.0
2017-Oct-23 17:28N 48°32' W 122°51'0 0.0
2017-Oct-23 16:58N 48°32' W 122°51'0 0.0
2017-Oct-23 16:28N 48°32' W 122°51'0 0.0
2017-Oct-23 15:58N 48°32' W 122°51'0 0.0
2017-Oct-23 15:25N 48°32' W 122°51'0 0.1
2017-Oct-23 14:58N 48°32' W 122°51'0 0.0
2017-Oct-23 14:28N 48°32' W 122°51'0 0.0
2017-Oct-23 13:58N 48°32' W 122°51'0 0.0
2017-Oct-23 13:28N 48°32' W 122°51'0 0.0
2017-Oct-23 12:52N 48°32' W 122°51'0 0.0
2017-Oct-23 12:28N 48°32' W 122°51'0 0.0
2017-Oct-23 11:58N 48°32' W 122°51'0 0.0
2017-Oct-23 11:25N 48°32' W 122°51'0 0.0
2017-Oct-23 10:58N 48°32' W 122°51'0 0.0
2017-Oct-23 10:28N 48°32' W 122°51'0 0.0
2017-Oct-23 09:58N 48°32' W 122°51'0 0.0
2017-Oct-23 09:28N 48°32' W 122°51'0 0.0
2017-Oct-23 08:58N 48°32' W 122°51'0 0.0
2017-Oct-23 08:28N 48°32' W 122°51'0 0.0
2017-Oct-23 07:58N 48°32' W 122°51'0 0.0
2017-Oct-23 07:28N 48°32' W 122°51'0 0.1
2017-Oct-23 07:01N 48°32' W 122°51'0 0.1
2017-Oct-23 06:27N 48°32' W 122°51'0 0.1
2017-Oct-23 06:00N 48°32' W 122°51'0 0.0
2017-Oct-23 05:30N 48°32' W 122°51'0 0.1
2017-Oct-23 04:48N 48°32' W 122°51'0 0.1
2017-Oct-23 04:30N 48°32' W 122°51'0 0.1
2017-Oct-23 04:00N 48°32' W 122°51'0 0.0
2017-Oct-23 03:30N 48°32' W 122°51'0 0.0
2017-Oct-23 03:00N 48°32' W 122°51'0 0.1
2017-Oct-23 02:30N 48°32' W 122°51'0 0.7
2017-Oct-23 02:01N 48°32' W 122°51'3 6.2
2017-Oct-23 01:30N 48°29' W 122°49'4 8.7
2017-Oct-23 01:00N 48°27' W 122°44'4 8.1
2017-Oct-23 00:30N 48°24' W 122°38'3 0.3
2017-Oct-22 14:20N 48°24' W 122°34'0 0.0
2017-Oct-22 14:00N 48°24' W 122°34'0 0.5
2017-Oct-22 13:18N 48°24' W 122°35'2 5.0
2017-Oct-22 12:51N 48°22' W 122°34'2 5.4
2017-Oct-22 12:30N 48°20' W 122°32'3 5.5
2017-Oct-22 11:59N 48°18' W 122°29'3 5.7
2017-Oct-22 11:30N 48°16' W 122°32'6 5.0
2017-Oct-22 10:18N 48°10' W 122°33'2 4.9
2017-Oct-22 09:49N 48°08' W 122°32'2 4.6
2017-Oct-22 09:26N 48°07' W 122°30'2 5.1
2017-Oct-22 08:57N 48°05' W 122°27'2 5.0
2017-Oct-22 08:29N 48°04' W 122°24'2 5.1
2017-Oct-22 07:59N 48°02' W 122°21'3 5.4
2017-Oct-22 07:29N 47°59' W 122°20'3 5.4
2017-Oct-22 07:00N 47°57' W 122°20'3 5.7
2017-Oct-22 06:30N 47°54' W 122°21'3 5.5
2017-Oct-22 06:00N 47°52' W 122°23'3 6.7
2017-Oct-22 05:30N 47°49' W 122°24'4 7.1
2017-Oct-22 05:00N 47°45' W 122°25'4 7.3
2017-Oct-22 04:30N 47°41' W 122°26'4 7.6
2017-Oct-22 04:00N 47°38' W 122°25'3 5.6
2017-Oct-22 03:30N 47°41' W 122°26'1 2.8
2017-Oct-22 03:00N 47°40' W 122°24'1 1.6
2017-Oct-22 02:30N 47°39' W 122°23'0 0.0
2017-Oct-22 01:59N 47°39' W 122°23'0 0.0
2017-Oct-22 01:30N 47°39' W 122°23'0 0.0
2017-Oct-22 01:00N 47°39' W 122°23'0 0.0
2017-Oct-22 00:31N 47°39' W 122°23'0 0.0
2017-Oct-22 00:00N 47°39' W 122°23'0 0.0
2017-Oct-21 23:31N 47°39' W 122°23'0 0.0
2017-Oct-21 23:01N 47°39' W 122°23'0 0.0
2017-Oct-21 22:31N 47°39' W 122°23'0 0.0
2017-Oct-21 22:01N 47°39' W 122°23'0 0.0
2017-Oct-21 21:30N 47°39' W 122°23'0 0.0
2017-Oct-21 21:01N 47°39' W 122°23'0 0.0
2017-Oct-21 20:31N 47°39' W 122°23'0 0.0
2017-Oct-21 20:01N 47°39' W 122°23'0 0.3
2017-Oct-21 19:31N 47°40' W 122°23'0 0.0
2017-Oct-21 19:01N 47°40' W 122°23'0 0.0
2017-Oct-21 18:31N 47°40' W 122°23'0 0.0
2017-Oct-21 18:01N 47°40' W 122°23'0 0.1
2017-Oct-21 17:30N 47°40' W 122°23'0 0.1
2017-Oct-21 17:01N 47°40' W 122°23'0 0.0
2017-Oct-21 16:31N 47°40' W 122°23'0 0.0
2017-Oct-21 16:01N 47°40' W 122°23'0 0.0
2017-Oct-21 15:31N 47°40' W 122°23'0 0.0
2017-Oct-21 15:01N 47°40' W 122°23'0 0.0
2017-Oct-21 14:01N 47°40' W 122°23'0 0.0
2017-Oct-21 13:31N 47°40' W 122°23'0 0.0
2017-Oct-21 13:00N 47°40' W 122°23'0 0.0
2017-Oct-21 12:30N 47°40' W 122°23'0 0.0
2017-Oct-21 12:00N 47°40' W 122°23'0 0.0
2017-Oct-21 11:31N 47°40' W 122°23'0 0.0
2017-Oct-21 11:00N 47°40' W 122°23'0 0.0
2017-Oct-21 10:30N 47°40' W 122°23'0 0.0
2017-Oct-21 10:01N 47°40' W 122°23'0 0.0
2017-Oct-21 09:30N 47°40' W 122°23'0 0.0
2017-Oct-21 09:00N 47°40' W 122°23'0 0.0
2017-Oct-21 08:31N 47°40' W 122°23'0 0.0
2017-Oct-21 08:01N 47°40' W 122°23'0 0.0
2017-Oct-21 07:31N 47°40' W 122°23'0 0.0
2017-Oct-21 07:01N 47°40' W 122°23'0 0.0
2017-Oct-21 06:30N 47°40' W 122°23'0 0.0
2017-Oct-21 06:01N 47°40' W 122°23'0 0.0
2017-Oct-21 05:31N 47°40' W 122°23'0 0.0
2017-Oct-21 05:01N 47°40' W 122°23'0 0.0
2017-Oct-21 04:31N 47°40' W 122°23'0 0.1
2017-Oct-21 04:01N 47°40' W 122°23'0 0.1
2017-Oct-21 03:30N 47°40' W 122°23'0 0.0
2017-Oct-21 03:01N 47°40' W 122°23'0 0.0
2017-Oct-21 02:31N 47°40' W 122°23'0 0.1
2017-Oct-21 02:01N 47°40' W 122°23'0 0.1
2017-Oct-21 01:31N 47°40' W 122°23'0 0.0
2017-Oct-21 01:01N 47°40' W 122°23'0 0.0
2017-Oct-21 00:30N 47°40' W 122°23'0 0.0
2017-Oct-21 00:00N 47°40' W 122°23'0 0.0
2017-Oct-20 23:30N 47°40' W 122°23'0 0.0
2017-Oct-20 23:01N 47°40' W 122°23'0 0.0
2017-Oct-20 22:31N 47°40' W 122°23'0 0.0
2017-Oct-20 22:00N 47°40' W 122°23'0 0.0
2017-Oct-20 21:30N 47°40' W 122°23'0 0.1
2017-Oct-20 21:01N 47°40' W 122°23'0 0.1
2017-Oct-20 20:30N 47°40' W 122°23'0 0.0
2017-Oct-20 20:01N 47°40' W 122°23'0 0.0
2017-Oct-20 19:31N 47°40' W 122°23'0 0.0
2017-Oct-20 19:01N 47°40' W 122°23'0 0.0
2017-Oct-20 18:31N 47°40' W 122°23'0 0.1
2017-Oct-20 18:01N 47°40' W 122°23'0 0.1
2017-Oct-20 17:30N 47°40' W 122°23'0 0.0
2017-Oct-20 17:01N 47°40' W 122°23'0 0.0
2017-Oct-20 16:31N 47°40' W 122°23'0 0.0
2017-Oct-20 16:01N 47°40' W 122°23'0 0.0
2017-Oct-20 15:30N 47°40' W 122°23'0 0.1
2017-Oct-20 15:01N 47°40' W 122°23'0 0.0
2017-Oct-20 14:01N 47°40' W 122°23'0 0.0
2017-Oct-20 13:31N 47°40' W 122°23'0 0.0
2017-Oct-20 13:00N 47°40' W 122°23'0 0.0
2017-Oct-20 12:31N 47°40' W 122°23'0 0.0
2017-Oct-20 12:00N 47°40' W 122°23'0 0.0
2017-Oct-20 11:30N 47°40' W 122°23'0 0.0
2017-Oct-20 11:01N 47°40' W 122°23'0 0.0
2017-Oct-20 10:30N 47°40' W 122°23'0 0.1
2017-Oct-20 10:01N 47°40' W 122°23'0 0.1
2017-Oct-20 09:31N 47°40' W 122°23'0 0.0
2017-Oct-20 09:00N 47°40' W 122°23'0 0.0
2017-Oct-20 08:31N 47°40' W 122°23'0 0.0
2017-Oct-20 08:01N 47°40' W 122°23'0 0.0
2017-Oct-20 07:30N 47°40' W 122°23'0 0.0
2017-Oct-20 07:00N 47°40' W 122°23'0 0.0
2017-Oct-20 06:31N 47°40' W 122°23'0 0.0
2017-Oct-20 06:01N 47°39' W 122°23'0 0.0
2017-Oct-20 05:31N 47°40' W 122°23'0 0.0
2017-Oct-20 05:00N 47°40' W 122°23'0 0.0
2017-Oct-20 04:31N 47°40' W 122°23'0 0.0
2017-Oct-20 04:01N 47°40' W 122°23'0 0.0
2017-Oct-20 03:31N 47°40' W 122°23'0 0.0
2017-Oct-20 03:01N 47°40' W 122°23'0 0.0
2017-Oct-20 02:31N 47°40' W 122°23'0 0.0
2017-Oct-20 02:00N 47°40' W 122°23'0 0.0
2017-Oct-20 01:30N 47°40' W 122°23'0 0.0
2017-Oct-20 01:01N 47°40' W 122°23'0 0.0
2017-Oct-20 00:31N 47°40' W 122°23'0 0.0
2017-Oct-20 00:01N 47°40' W 122°23'0 0.0
2017-Oct-19 23:30N 47°40' W 122°23'0 0.0
2017-Oct-19 23:00N 47°40' W 122°23'0 0.0
2017-Oct-19 22:31N 47°40' W 122°23'0 0.0
2017-Oct-19 22:01N 47°40' W 122°23'0 0.1
2017-Oct-19 21:31N 47°40' W 122°23'0 0.1
2017-Oct-19 21:00N 47°40' W 122°23'0 0.0
2017-Oct-19 20:30N 47°40' W 122°23'0 0.0
2017-Oct-19 20:00N 47°40' W 122°23'0 0.0
2017-Oct-19 19:31N 47°40' W 122°23'0 0.0
2017-Oct-19 19:01N 47°40' W 122°23'0 0.0
2017-Oct-19 18:30N 47°40' W 122°23'0 0.1
2017-Oct-19 18:01N 47°40' W 122°23'0 0.1
2017-Oct-19 17:31N 47°40' W 122°23'0 0.0
2017-Oct-19 17:00N 47°40' W 122°23'0 0.0
2017-Oct-19 16:31N 47°40' W 122°23'0 0.0
2017-Oct-19 16:00N 47°40' W 122°23'0 0.0
2017-Oct-19 15:31N 47°40' W 122°23'0 0.0
2017-Oct-19 15:01N 47°40' W 122°23'0 0.0
2017-Oct-19 14:30N 47°40' W 122°23'0 0.0
2017-Oct-19 14:00N 47°40' W 122°23'0 0.0
2017-Oct-19 13:30N 47°40' W 122°23'0 0.0
2017-Oct-19 13:01N 47°40' W 122°23'0 0.0
2017-Oct-19 12:31N 47°40' W 122°23'0 0.0
2017-Oct-19 12:00N 47°40' W 122°23'0 0.0
2017-Oct-19 11:31N 47°40' W 122°23'0 0.0
2017-Oct-19 11:01N 47°40' W 122°23'0 0.0
2017-Oct-19 10:31N 47°40' W 122°23'0 0.0
2017-Oct-19 10:00N 47°40' W 122°23'0 0.1
2017-Oct-19 09:31N 47°40' W 122°23'0 0.1
2017-Oct-19 09:00N 47°40' W 122°23'0 0.1
2017-Oct-19 08:31N 47°40' W 122°23'0 0.1
2017-Oct-19 08:01N 47°40' W 122°23'0 0.0
2017-Oct-19 07:31N 47°40' W 122°23'0 0.0
2017-Oct-19 07:01N 47°40' W 122°23'0 0.0
2017-Oct-19 06:30N 47°40' W 122°23'0 0.0
2017-Oct-19 06:00N 47°40' W 122°23'0 0.0
2017-Oct-19 05:30N 47°40' W 122°23'0 0.0
2017-Oct-19 05:00N 47°40' W 122°23'0 0.0
2017-Oct-19 04:30N 47°40' W 122°23'0 0.0
2017-Oct-19 04:01N 47°40' W 122°23'0 0.0
2017-Oct-19 03:30N 47°40' W 122°23'0 0.0
2017-Oct-19 03:00N 47°40' W 122°23'0 0.0
2017-Oct-19 02:30N 47°40' W 122°23'0 0.1
2017-Oct-19 02:00N 47°40' W 122°23'0 0.1
2017-Oct-19 01:30N 47°40' W 122°23'0 0.0
2017-Oct-19 01:00N 47°40' W 122°23'0 0.0
2017-Oct-19 00:30N 47°40' W 122°23'0 0.0
2017-Oct-19 00:00N 47°40' W 122°23'0 0.0
2017-Oct-18 23:30N 47°40' W 122°23'0 0.0
2017-Oct-18 23:00N 47°40' W 122°23'0 0.0
2017-Oct-18 22:30N 47°40' W 122°23'0 0.0
2017-Oct-18 22:00N 47°40' W 122°23'0 0.1
2017-Oct-18 21:30N 47°40' W 122°23'0 0.0
2017-Oct-18 21:00N 47°40' W 122°23'0 0.1
2017-Oct-18 20:30N 47°40' W 122°23'0 0.0
2017-Oct-18 20:00N 47°40' W 122°23'0 0.1
2017-Oct-18 19:30N 47°40' W 122°23'0 0.0
2017-Oct-18 19:00N 47°40' W 122°23'0 0.1
2017-Oct-18 18:30N 47°40' W 122°23'0 0.1
2017-Oct-18 18:00N 47°40' W 122°23'0 0.1
2017-Oct-18 17:30N 47°40' W 122°23'0 0.0
2017-Oct-18 17:00N 47°40' W 122°23'0 0.0
2017-Oct-18 16:30N 47°40' W 122°23'  
Track history (hours):
 
Tides and Currents Weather Stations Pressure Air Temp Water Temp Dewpoint Dewpoint Depression Visibility Wind Speed Wind Dir Waves Ship Positions

WilderneSS Discoverer

Owner: InnerSea Discoveries, Seattle, WA. More information available from US FCC via Universal Licensing System and Coast Guard Vessel Documentation Center.

Last reported at 2017-Oct-28 16:05 UTC. Time now 2017-Dec-15 00:45 UTC.
Position N 47°40' W 122°23'.
Warning: this ship's position is 47 days out of date.

Length 52 m; draft 2.4 m.

Type: Passenger vessel. MMSI: 367480140.

Date/timePositionNaut miles runAvg speedWind from/ knotsBaromVisibWave heightAir tempDewpointWater temp
2017-Oct-28 16:05N 47°40' W 122°23'0 0.1
2017-Oct-28 16:00N 47°40' W 122°23'0 0.3
2017-Oct-28 15:30N 47°39' W 122°23'0 0.0
2017-Oct-28 14:59N 47°39' W 122°23'0 0.0
2017-Oct-28 14:29N 47°39' W 122°23'0 0.0
2017-Oct-28 13:59N 47°39' W 122°23'1 1.3
2017-Oct-28 13:30N 47°40' W 122°24'1 1.7
2017-Oct-28 13:00N 47°40' W 122°25'2 3.8
2017-Oct-28 12:30N 47°42' W 122°25'2 3.7
2017-Oct-28 12:00N 47°44' W 122°26'2 4.5
2017-Oct-28 11:30N 47°46' W 122°27'2 5.0
2017-Oct-28 11:00N 47°48' W 122°28'2 4.9
2017-Oct-28 10:30N 47°51' W 122°29'2 4.8
2017-Oct-28 10:00N 47°53' W 122°30'2 4.4
2017-Oct-28 09:30N 47°55' W 122°31'2 4.3
2017-Oct-28 09:00N 47°56' W 122°34'2 4.0
2017-Oct-28 08:30N 47°57' W 122°37'2 3.6
2017-Oct-28 08:00N 47°55' W 122°38'2 4.6
2017-Oct-28 07:30N 47°53' W 122°36'2 4.4
2017-Oct-28 07:00N 47°51' W 122°37'2 3.6
2017-Oct-28 06:30N 47°50' W 122°39'3 6.0
2017-Oct-28 06:00N 47°48' W 122°42'4 8.8
2017-Oct-28 05:30N 47°44' W 122°45'4 8.1
2017-Oct-28 05:00N 47°41' W 122°48'4 8.7
2017-Oct-28 04:30N 47°38' W 122°54'4 8.4
2017-Oct-28 04:00N 47°35' W 122°58'4 8.5
2017-Oct-28 03:30N 47°32' W 123°02'4 8.4
2017-Oct-28 03:00N 47°28' W 123°05'4 8.6
2017-Oct-28 02:30N 47°24' W 123°08'2 3.8
2017-Oct-28 01:53N 47°22' W 123°09'0 0.0
2017-Oct-28 00:23N 47°22' W 123°09'0 0.1
2017-Oct-27 23:50N 47°22' W 123°09'0 0.1
2017-Oct-27 23:26N 47°22' W 123°09'0 0.0
2017-Oct-27 22:59N 47°22' W 123°09'0 0.1
2017-Oct-27 22:23N 47°22' W 123°09'0 0.0
2017-Oct-27 22:00N 47°22' W 123°09'0 0.1
2017-Oct-27 21:28N 47°22' W 123°09'0 0.1
2017-Oct-27 20:52N 47°22' W 123°09'0 0.0
2017-Oct-27 20:25N 47°22' W 123°09'0 0.0
2017-Oct-27 20:00N 47°22' W 123°09'0 0.0
2017-Oct-27 19:28N 47°22' W 123°09'0 0.0
2017-Oct-27 18:59N 47°22' W 123°09'2 3.8
2017-Oct-27 18:30N 47°24' W 123°08'0 0.9
2017-Oct-27 17:58N 47°24' W 123°08'0 0.1
2017-Oct-27 17:13N 47°24' W 123°08'0 0.0
2017-Oct-27 15:40N 47°24' W 123°08'0 0.0
2017-Oct-27 15:25N 47°24' W 123°08'0 0.0
2017-Oct-27 14:55N 47°24' W 123°08'0 0.8
2017-Oct-27 14:30N 47°24' W 123°08'2 1.4
2017-Oct-27 13:14N 47°22' W 123°09'0 0.0
2017-Oct-27 12:59N 47°22' W 123°09'0 0.0
2017-Oct-27 09:59N 47°22' W 123°09'0 0.0
2017-Oct-27 09:11N 47°22' W 123°09'0 0.0
2017-Oct-27 08:59N 47°22' W 123°09'0 0.0
2017-Oct-27 08:29N 47°22' W 123°09'0 0.0
2017-Oct-27 07:59N 47°22' W 123°09'0 0.0
2017-Oct-27 07:26N 47°22' W 123°09'0 0.0
2017-Oct-27 06:56N 47°22' W 123°09'0 0.1
2017-Oct-27 06:29N 47°22' W 123°09'5 9.6
2017-Oct-27 06:00N 47°26' W 123°06'510.6
2017-Oct-27 05:30N 47°31' W 123°02'510.6
2017-Oct-27 05:00N 47°35' W 122°58'510.5
2017-Oct-27 04:30N 47°39' W 122°52'510.2
2017-Oct-27 04:00N 47°42' W 122°46'510.0
2017-Oct-27 03:28N 47°47' W 122°43'510.5
2017-Oct-27 03:00N 47°50' W 122°39'4 7.5
2017-Oct-27 02:30N 47°54' W 122°37'710.4
2017-Oct-27 01:51N 48°01' W 122°39'7 1.2
2017-Oct-26 19:27N 48°06' W 122°46'3 5.1
2017-Oct-26 18:55N 48°09' W 122°46'3 6.4
2017-Oct-26 18:28N 48°11' W 122°49'3 6.5
2017-Oct-26 17:59N 48°13' W 122°52'4 8.0
2017-Oct-26 17:29N 48°17' W 122°52'3 4.9
2017-Oct-26 16:55N 48°20' W 122°51'4 7.9
2017-Oct-26 16:23N 48°23' W 122°55'3 8.9
2017-Oct-26 16:00N 48°26' W 122°57'3 5.4
2017-Oct-26 15:30N 48°29' W 122°57'3 6.5
2017-Oct-26 15:00N 48°32' W 122°57'2 4.0
2017-Oct-26 14:27N 48°32' W 123°01'0 0.0
2017-Oct-26 14:00N 48°32' W 123°01'0 0.0
2017-Oct-26 13:30N 48°32' W 123°01'0 0.0
2017-Oct-26 13:00N 48°32' W 123°01'0 0.0
2017-Oct-26 12:27N 48°32' W 123°01'0 0.0
2017-Oct-26 12:00N 48°32' W 123°01'0 0.0
2017-Oct-26 11:30N 48°32' W 123°01'0 0.0
2017-Oct-26 10:54N 48°32' W 123°01'0 0.0
2017-Oct-26 10:30N 48°32' W 123°01'0 0.0
2017-Oct-26 10:00N 48°32' W 123°01'0 0.0
2017-Oct-26 09:30N 48°32' W 123°01'0 0.0
2017-Oct-26 09:00N 48°32' W 123°01'0 0.0
2017-Oct-26 08:30N 48°32' W 123°01'0 0.0
2017-Oct-26 08:00N 48°32' W 123°01'0 0.0
2017-Oct-26 07:30N 48°32' W 123°01'0 0.0
2017-Oct-26 07:00N 48°32' W 123°01'0 0.0
2017-Oct-26 06:24N 48°32' W 123°01'0 0.0
2017-Oct-26 06:00N 48°32' W 123°01'0 0.0
2017-Oct-26 05:30N 48°32' W 123°01'0 0.0
2017-Oct-26 05:00N 48°32' W 123°01'0 0.0
2017-Oct-26 04:30N 48°32' W 123°01'0 0.0
2017-Oct-26 04:00N 48°32' W 123°01'0 0.0
2017-Oct-26 03:30N 48°32' W 123°01'0 0.0
2017-Oct-26 03:00N 48°32' W 123°01'0 0.0
2017-Oct-26 02:30N 48°32' W 123°01'0 0.0
2017-Oct-26 02:00N 48°32' W 123°01'2 3.7
2017-Oct-26 01:31N 48°34' W 123°01'4 8.4
2017-Oct-26 01:00N 48°38' W 123°02'510.8
2017-Oct-26 00:30N 48°43' W 122°58'4 6.6
2017-Oct-25 23:56N 48°46' W 122°54'0 0.0
2017-Oct-25 23:04N 48°46' W 122°54'0 0.0
2017-Oct-25 23:00N 48°46' W 122°54'0 0.0
2017-Oct-25 20:39N 48°46' W 122°54'0 0.1
2017-Oct-25 20:30N 48°46' W 122°54'0 0.0
2017-Oct-25 16:48N 48°46' W 122°54'0 0.0
2017-Oct-25 12:09N 48°46' W 122°54'0 0.0
2017-Oct-25 03:30N 48°46' W 122°54'0 0.0
2017-Oct-25 03:00N 48°46' W 122°54'1 1.0
2017-Oct-25 02:27N 48°45' W 122°53'4 8.7
2017-Oct-25 02:00N 48°43' W 122°49'5 9.0
2017-Oct-25 01:30N 48°39' W 122°44'4 8.7
2017-Oct-25 01:00N 48°36' W 122°49'4 7.8
2017-Oct-25 00:31N 48°39' W 122°53'3 5.0
2017-Oct-24 23:59N 48°41' W 122°54'0 0.0
2017-Oct-24 23:26N 48°41' W 122°54'0 0.1
2017-Oct-24 22:59N 48°41' W 122°54'0 0.1
2017-Oct-24 22:30N 48°41' W 122°54'0 0.1
2017-Oct-24 22:00N 48°41' W 122°54'0 0.0
2017-Oct-24 21:30N 48°41' W 122°54'0 0.0
2017-Oct-24 21:00N 48°41' W 122°54'0 0.0
2017-Oct-24 20:24N 48°41' W 122°54'0 0.0
2017-Oct-24 19:57N 48°41' W 122°54'0 0.1
2017-Oct-24 19:30N 48°41' W 122°54'0 0.1
2017-Oct-24 19:00N 48°41' W 122°54'0 0.1
2017-Oct-24 18:30N 48°41' W 122°54'0 0.1
2017-Oct-24 18:00N 48°41' W 122°54'0 0.8
2017-Oct-24 17:30N 48°41' W 122°54'3 5.5
2017-Oct-24 17:00N 48°39' W 122°52'0 0.1
2017-Oct-24 16:28N 48°39' W 122°52'0 0.1
2017-Oct-24 15:58N 48°39' W 122°52'0 0.0
2017-Oct-24 15:28N 48°39' W 122°52'0 0.0
2017-Oct-24 14:58N 48°39' W 122°52'0 0.1
2017-Oct-24 14:28N 48°39' W 122°52'0 0.1
2017-Oct-24 13:58N 48°39' W 122°52'0 0.0
2017-Oct-24 13:28N 48°39' W 122°52'0 0.0
2017-Oct-24 12:58N 48°39' W 122°52'0 0.1
2017-Oct-24 12:25N 48°39' W 122°52'0 0.1
2017-Oct-24 11:58N 48°39' W 122°52'0 0.0
2017-Oct-24 11:28N 48°39' W 122°52'0 0.1
2017-Oct-24 10:58N 48°39' W 122°52'0 0.1
2017-Oct-24 10:28N 48°39' W 122°52'0 0.0
2017-Oct-24 09:58N 48°39' W 122°52'0 0.1
2017-Oct-24 09:28N 48°38' W 122°52'0 0.1
2017-Oct-24 08:58N 48°39' W 122°52'0 0.0
2017-Oct-24 08:28N 48°39' W 122°52'0 0.0
2017-Oct-24 07:58N 48°39' W 122°52'0 0.0
2017-Oct-24 07:28N 48°39' W 122°52'0 0.0
2017-Oct-24 06:58N 48°39' W 122°52'0 0.0
2017-Oct-24 06:28N 48°39' W 122°52'0 0.1
2017-Oct-24 05:58N 48°39' W 122°52'0 0.1
2017-Oct-24 05:28N 48°39' W 122°52'0 0.0
2017-Oct-24 04:58N 48°39' W 122°52'0 0.0
2017-Oct-24 04:28N 48°39' W 122°52'0 0.0
2017-Oct-24 03:58N 48°39' W 122°52'0 0.0
2017-Oct-24 03:28N 48°39' W 122°52'0 0.0
2017-Oct-24 02:58N 48°39' W 122°52'0 0.0
2017-Oct-24 02:25N 48°39' W 122°52'0 0.0
2017-Oct-24 01:59N 48°39' W 122°52'1 1.6
2017-Oct-24 01:30N 48°38' W 122°52'4 7.2
2017-Oct-24 01:00N 48°36' W 122°47'4 7.6
2017-Oct-24 00:30N 48°35' W 122°41'0 0.4
2017-Oct-23 23:54N 48°35' W 122°41'0 0.0
2017-Oct-23 23:30N 48°35' W 122°41'0 0.0
2017-Oct-23 22:57N 48°35' W 122°41'0 0.0
2017-Oct-23 22:30N 48°35' W 122°41'0 0.0
2017-Oct-23 22:00N 48°35' W 122°41'0 0.0
2017-Oct-23 21:24N 48°35' W 122°41'0 0.0
2017-Oct-23 20:57N 48°35' W 122°41'0 0.0
2017-Oct-23 20:30N 48°35' W 122°41'1 1.4
2017-Oct-23 20:00N 48°35' W 122°41'3 6.6
2017-Oct-23 19:30N 48°32' W 122°43'4 8.8
2017-Oct-23 19:00N 48°32' W 122°49'1 2.3
2017-Oct-23 18:28N 48°32' W 122°51'0 0.0
2017-Oct-23 17:58N 48°32' W 122°51'0 0.0
2017-Oct-23 17:28N 48°32' W 122°51'0 0.0
2017-Oct-23 16:58N 48°32' W 122°51'0 0.0
2017-Oct-23 16:28N 48°32' W 122°51'0 0.0
2017-Oct-23 15:58N 48°32' W 122°51'0 0.0
2017-Oct-23 15:25N 48°32' W 122°51'0 0.1
2017-Oct-23 14:58N 48°32' W 122°51'0 0.0
2017-Oct-23 14:28N 48°32' W 122°51'0 0.0
2017-Oct-23 13:58N 48°32' W 122°51'0 0.0
2017-Oct-23 13:28N 48°32' W 122°51'0 0.0
2017-Oct-23 12:52N 48°32' W 122°51'0 0.0
2017-Oct-23 12:28N 48°32' W 122°51'0 0.0
2017-Oct-23 11:58N 48°32' W 122°51'0 0.0
2017-Oct-23 11:25N 48°32' W 122°51'0 0.0
2017-Oct-23 10:58N 48°32' W 122°51'0 0.0
2017-Oct-23 10:28N 48°32' W 122°51'0 0.0
2017-Oct-23 09:58N 48°32' W 122°51'0 0.0
2017-Oct-23 09:28N 48°32' W 122°51'0 0.0
2017-Oct-23 08:58N 48°32' W 122°51'0 0.0
2017-Oct-23 08:28N 48°32' W 122°51'0 0.0
2017-Oct-23 07:58N 48°32' W 122°51'0 0.0
2017-Oct-23 07:28N 48°32' W 122°51'0 0.1
2017-Oct-23 07:01N 48°32' W 122°51'0 0.1
2017-Oct-23 06:27N 48°32' W 122°51'0 0.1
2017-Oct-23 06:00N 48°32' W 122°51'0 0.0
2017-Oct-23 05:30N 48°32' W 122°51'0 0.1
2017-Oct-23 04:48N 48°32' W 122°51'0 0.1
2017-Oct-23 04:30N 48°32' W 122°51'0 0.1
2017-Oct-23 04:00N 48°32' W 122°51'0 0.0
2017-Oct-23 03:30N 48°32' W 122°51'0 0.0
2017-Oct-23 03:00N 48°32' W 122°51'0 0.1
2017-Oct-23 02:30N 48°32' W 122°51'0 0.7
2017-Oct-23 02:01N 48°32' W 122°51'3 6.2
2017-Oct-23 01:30N 48°29' W 122°49'4 8.7
2017-Oct-23 01:00N 48°27' W 122°44'4 8.1
2017-Oct-23 00:30N 48°24' W 122°38'3 0.3
2017-Oct-22 14:20N 48°24' W 122°34'0 0.0
2017-Oct-22 14:00N 48°24' W 122°34'0 0.5
2017-Oct-22 13:18N 48°24' W 122°35'2 5.0
2017-Oct-22 12:51N 48°22' W 122°34'2 5.4
2017-Oct-22 12:30N 48°20' W 122°32'3 5.5
2017-Oct-22 11:59N 48°18' W 122°29'3 5.7
2017-Oct-22 11:30N 48°16' W 122°32'6 5.0
2017-Oct-22 10:18N 48°10' W 122°33'2 4.9
2017-Oct-22 09:49N 48°08' W 122°32'2 4.6
2017-Oct-22 09:26N 48°07' W 122°30'2 5.1
2017-Oct-22 08:57N 48°05' W 122°27'2 5.0
2017-Oct-22 08:29N 48°04' W 122°24'2 5.1
2017-Oct-22 07:59N 48°02' W 122°21'3 5.4
2017-Oct-22 07:29N 47°59' W 122°20'3 5.4
2017-Oct-22 07:00N 47°57' W 122°20'3 5.7
2017-Oct-22 06:30N 47°54' W 122°21'3 5.5
2017-Oct-22 06:00N 47°52' W 122°23'3 6.7
2017-Oct-22 05:30N 47°49' W 122°24'4 7.1
2017-Oct-22 05:00N 47°45' W 122°25'4 7.3
2017-Oct-22 04:30N 47°41' W 122°26'4 7.6
2017-Oct-22 04:00N 47°38' W 122°25'3 5.6
2017-Oct-22 03:30N 47°41' W 122°26'1 2.8
2017-Oct-22 03:00N 47°40' W 122°24'1 1.6
2017-Oct-22 02:30N 47°39' W 122°23'0 0.0
2017-Oct-22 01:59N 47°39' W 122°23'0 0.0
2017-Oct-22 01:30N 47°39' W 122°23'0 0.0
2017-Oct-22 01:00N 47°39' W 122°23'0 0.0
2017-Oct-22 00:31N 47°39' W 122°23'0 0.0
2017-Oct-22 00:00N 47°39' W 122°23'0 0.0
2017-Oct-21 23:31N 47°39' W 122°23'0 0.0
2017-Oct-21 23:01N 47°39' W 122°23'0 0.0
2017-Oct-21 22:31N 47°39' W 122°23'0 0.0
2017-Oct-21 22:01N 47°39' W 122°23'0 0.0
2017-Oct-21 21:30N 47°39' W 122°23'0 0.0
2017-Oct-21 21:01N 47°39' W 122°23'0 0.0
2017-Oct-21 20:31N 47°39' W 122°23'0 0.0
2017-Oct-21 20:01N 47°39' W 122°23'0 0.3
2017-Oct-21 19:31N 47°40' W 122°23'0 0.0
2017-Oct-21 19:01N 47°40' W 122°23'0 0.0
2017-Oct-21 18:31N 47°40' W 122°23'0 0.0
2017-Oct-21 18:01N 47°40' W 122°23'0 0.1
2017-Oct-21 17:30N 47°40' W 122°23'0 0.1
2017-Oct-21 17:01N 47°40' W 122°23'0 0.0
2017-Oct-21 16:31N 47°40' W 122°23'0 0.0
2017-Oct-21 16:01N 47°40' W 122°23'0 0.0
2017-Oct-21 15:31N 47°40' W 122°23'0 0.0
2017-Oct-21 15:01N 47°40' W 122°23'0 0.0
2017-Oct-21 14:01N 47°40' W 122°23'0 0.0
2017-Oct-21 13:31N 47°40' W 122°23'0 0.0
2017-Oct-21 13:00N 47°40' W 122°23'0 0.0
2017-Oct-21 12:30N 47°40' W 122°23'0 0.0
2017-Oct-21 12:00N 47°40' W 122°23'0 0.0
2017-Oct-21 11:31N 47°40' W 122°23'0 0.0
2017-Oct-21 11:00N 47°40' W 122°23'0 0.0
2017-Oct-21 10:30N 47°40' W 122°23'0 0.0
2017-Oct-21 10:01N 47°40' W 122°23'0 0.0
2017-Oct-21 09:30N 47°40' W 122°23'0 0.0
2017-Oct-21 09:00N 47°40' W 122°23'0 0.0
2017-Oct-21 08:31N 47°40' W 122°23'0 0.0
2017-Oct-21 08:01N 47°40' W 122°23'0 0.0
2017-Oct-21 07:31N 47°40' W 122°23'0 0.0
2017-Oct-21 07:01N 47°40' W 122°23'0 0.0
2017-Oct-21 06:30N 47°40' W 122°23'0 0.0
2017-Oct-21 06:01N 47°40' W 122°23'0 0.0
2017-Oct-21 05:31N 47°40' W 122°23'0 0.0
2017-Oct-21 05:01N 47°40' W 122°23'0 0.0
2017-Oct-21 04:31N 47°40' W 122°23'0 0.1
2017-Oct-21 04:01N 47°40' W 122°23'0 0.1
2017-Oct-21 03:30N 47°40' W 122°23'0 0.0
2017-Oct-21 03:01N 47°40' W 122°23'0 0.0
2017-Oct-21 02:31N 47°40' W 122°23'0 0.1
2017-Oct-21 02:01N 47°40' W 122°23'0 0.1
2017-Oct-21 01:31N 47°40' W 122°23'0 0.0
2017-Oct-21 01:01N 47°40' W 122°23'0 0.0
2017-Oct-21 00:30N 47°40' W 122°23'0 0.0
2017-Oct-21 00:00N 47°40' W 122°23'0 0.0
2017-Oct-20 23:30N 47°40' W 122°23'0 0.0
2017-Oct-20 23:01N 47°40' W 122°23'0 0.0
2017-Oct-20 22:31N 47°40' W 122°23'0 0.0
2017-Oct-20 22:00N 47°40' W 122°23'0 0.0
2017-Oct-20 21:30N 47°40' W 122°23'0 0.1
2017-Oct-20 21:01N 47°40' W 122°23'0 0.1
2017-Oct-20 20:30N 47°40' W 122°23'0 0.0
2017-Oct-20 20:01N 47°40' W 122°23'0 0.0
2017-Oct-20 19:31N 47°40' W 122°23'0 0.0
2017-Oct-20 19:01N 47°40' W 122°23'0 0.0
2017-Oct-20 18:31N 47°40' W 122°23'0 0.1
2017-Oct-20 18:01N 47°40' W 122°23'0 0.1
2017-Oct-20 17:30N 47°40' W 122°23'0 0.0
2017-Oct-20 17:01N 47°40' W 122°23'0 0.0
2017-Oct-20 16:31N 47°40' W 122°23'0 0.0
2017-Oct-20 16:01N 47°40' W 122°23'0 0.0
2017-Oct-20 15:30N 47°40' W 122°23'0 0.1
2017-Oct-20 15:01N 47°40' W 122°23'0 0.0
2017-Oct-20 14:01N 47°40' W 122°23'0 0.0
2017-Oct-20 13:31N 47°40' W 122°23'0 0.0
2017-Oct-20 13:00N 47°40' W 122°23'0 0.0
2017-Oct-20 12:31N 47°40' W 122°23'0 0.0
2017-Oct-20 12:00N 47°40' W 122°23'0 0.0
2017-Oct-20 11:30N 47°40' W 122°23'0 0.0
2017-Oct-20 11:01N 47°40' W 122°23'0 0.0
2017-Oct-20 10:30N 47°40' W 122°23'0 0.1
2017-Oct-20 10:01N 47°40' W 122°23'0 0.1
2017-Oct-20 09:31N 47°40' W 122°23'0 0.0
2017-Oct-20 09:00N 47°40' W 122°23'0 0.0
2017-Oct-20 08:31N 47°40' W 122°23'0 0.0
2017-Oct-20 08:01N 47°40' W 122°23'0 0.0
2017-Oct-20 07:30N 47°40' W 122°23'0 0.0
2017-Oct-20 07:00N 47°40' W 122°23'0 0.0
2017-Oct-20 06:31N 47°40' W 122°23'0 0.0
2017-Oct-20 06:01N 47°39' W 122°23'0 0.0
2017-Oct-20 05:31N 47°40' W 122°23'0 0.0
2017-Oct-20 05:00N 47°40' W 122°23'0 0.0
2017-Oct-20 04:31N 47°40' W 122°23'0 0.0
2017-Oct-20 04:01N 47°40' W 122°23'0 0.0
2017-Oct-20 03:31N 47°40' W 122°23'0 0.0
2017-Oct-20 03:01N 47°40' W 122°23'0 0.0
2017-Oct-20 02:31N 47°40' W 122°23'0 0.0
2017-Oct-20 02:00N 47°40' W 122°23'0 0.0
2017-Oct-20 01:30N 47°40' W 122°23'0 0.0
2017-Oct-20 01:01N 47°40' W 122°23'0 0.0
2017-Oct-20 00:31N 47°40' W 122°23'0 0.0
2017-Oct-20 00:01N 47°40' W 122°23'0 0.0
2017-Oct-19 23:30N 47°40' W 122°23'0 0.0
2017-Oct-19 23:00N 47°40' W 122°23'0 0.0
2017-Oct-19 22:31N 47°40' W 122°23'0 0.0
2017-Oct-19 22:01N 47°40' W 122°23'0 0.1
2017-Oct-19 21:31N 47°40' W 122°23'0 0.1
2017-Oct-19 21:00N 47°40' W 122°23'0 0.0
2017-Oct-19 20:30N 47°40' W 122°23'0 0.0
2017-Oct-19 20:00N 47°40' W 122°23'0 0.0
2017-Oct-19 19:31N 47°40' W 122°23'0 0.0
2017-Oct-19 19:01N 47°40' W 122°23'0 0.0
2017-Oct-19 18:30N 47°40' W 122°23'0 0.1
2017-Oct-19 18:01N 47°40' W 122°23'0 0.1
2017-Oct-19 17:31N 47°40' W 122°23'0 0.0
2017-Oct-19 17:00N 47°40' W 122°23'0 0.0
2017-Oct-19 16:31N 47°40' W 122°23'0 0.0
2017-Oct-19 16:00N 47°40' W 122°23'0 0.0
2017-Oct-19 15:31N 47°40' W 122°23'0 0.0
2017-Oct-19 15:01N 47°40' W 122°23'0 0.0
2017-Oct-19 14:30N 47°40' W 122°23'0 0.0
2017-Oct-19 14:00N 47°40' W 122°23'0 0.0
2017-Oct-19 13:30N 47°40' W 122°23'0 0.0
2017-Oct-19 13:01N 47°40' W 122°23'0 0.0
2017-Oct-19 12:31N 47°40' W 122°23'0 0.0
2017-Oct-19 12:00N 47°40' W 122°23'0 0.0
2017-Oct-19 11:31N 47°40' W 122°23'0 0.0
2017-Oct-19 11:01N 47°40' W 122°23'0 0.0
2017-Oct-19 10:31N 47°40' W 122°23'0 0.0
2017-Oct-19 10:00N 47°40' W 122°23'0 0.1
2017-Oct-19 09:31N 47°40' W 122°23'0 0.1
2017-Oct-19 09:00N 47°40' W 122°23'0 0.1
2017-Oct-19 08:31N 47°40' W 122°23'0 0.1
2017-Oct-19 08:01N 47°40' W 122°23'0 0.0
2017-Oct-19 07:31N 47°40' W 122°23'0 0.0
2017-Oct-19 07:01N 47°40' W 122°23'0 0.0
2017-Oct-19 06:30N 47°40' W 122°23'0 0.0
2017-Oct-19 06:00N 47°40' W 122°23'0 0.0
2017-Oct-19 05:30N 47°40' W 122°23'0 0.0
2017-Oct-19 05:00N 47°40' W 122°23'0 0.0
2017-Oct-19 04:30N 47°40' W 122°23'0 0.0
2017-Oct-19 04:01N 47°40' W 122°23'0 0.0
2017-Oct-19 03:30N 47°40' W 122°23'0 0.0
2017-Oct-19 03:00N 47°40' W 122°23'0 0.0
2017-Oct-19 02:30N 47°40' W 122°23'0 0.1
2017-Oct-19 02:00N 47°40' W 122°23'0 0.1
2017-Oct-19 01:30N 47°40' W 122°23'0 0.0
2017-Oct-19 01:00N 47°40' W 122°23'0 0.0
2017-Oct-19 00:30N 47°40' W 122°23'0 0.0
2017-Oct-19 00:00N 47°40' W 122°23'0 0.0
2017-Oct-18 23:30N 47°40' W 122°23'0 0.0
2017-Oct-18 23:00N 47°40' W 122°23'0 0.0
2017-Oct-18 22:30N 47°40' W 122°23'0 0.0
2017-Oct-18 22:00N 47°40' W 122°23'0 0.1
2017-Oct-18 21:30N 47°40' W 122°23'0 0.0
2017-Oct-18 21:00N 47°40' W 122°23'0 0.1
2017-Oct-18 20:30N 47°40' W 122°23'0 0.0
2017-Oct-18 20:00N 47°40' W 122°23'0 0.1
2017-Oct-18 19:30N 47°40' W 122°23'0 0.0
2017-Oct-18 19:00N 47°40' W 122°23'0 0.1
2017-Oct-18 18:30N 47°40' W 122°23'0 0.1
2017-Oct-18 18:00N 47°40' W 122°23'0 0.1
2017-Oct-18 17:30N 47°40' W 122°23'0 0.0
2017-Oct-18 17:00N 47°40' W 122°23'0 0.0
2017-Oct-18 16:30N 47°40' W 122°23'  

Dump ship's entire track history